KFCS/FCS METAR and TAF weather

Enter ICAO airport designator
Station Type Date Time Source
KFCS METAR 2022/12/04 05:55 UTC NOAA

KFCS 040555Z AUTO 33007KT 10SM CLR M00/M11 A3018 RMK AO2 SLP268 T10031114 10016 21018 53004 PNO $


Station Type Date Time Source
KFCS Decoded METAR 2022/12/04 05:55 UTC NOAA

Fort Carson, CO, United States (KFCS) 38-42N 104-46W 1789M
Dec 04, 2022 - 12:55 AM EST / 2022.12.04 0555 UTC
Wind: from the NNW (330 degrees) at 8 MPH (7 KT):0
Visibility: 10 mile(s):0
Sky conditions: clear
Temperature: 31.5 F (-0.3 C)
Windchill: 24 F (-4 C):1
Dew Point: 11.5 F (-11.4 C)
Relative Humidity: 42%
Pressure (altimeter): 30.18 in. Hg (1022 hPa)
Pressure tendency: 0.01 inches (0.4 hPa) higher than three hours ago
ob: KFCS 040555Z AUTO 33007KT 10SM CLR M00/M11 A3018 RMK AO2 SLP268 T10031114 10016 21018 53004 PNO
cycle: 6

Station Type Date Time Source
KFCS TAF 2022/12/03 13:12 UTC NOAA

TAF TAF COR KFCS 031904Z 0313/0419 16010KT 9999 SCT080 QNH3026INS 520006
BECMG 0404/0405 33010KT 9999 SCT150 QNH3021INS 530006
BECMG 0415/0416 18010KT 9999 SCT150 QNH3018INS 510006 TX08/0321Z TNM05/0315Z LAST NO
AMDS AFT 0320 NEXT 0505

Example: see airport list